Aérodrome :
LOGIN :

S'inscrire | Disclaimer

   EN    FR    IT 

 










Légende :    VFR   VFR Marginal   IFR   IFR Intensif   IFR Très Intensif
Visi : 
Plafond : 
>= 8 km
>= 3000ft
5 à 8 km
1000 à 3000 ft
1500m à 5 km
500 à 1000 ft
800 à 1500m
200 à 500 ft
< 800m
< 200 ft
Symboles :   Orages  Brouillard  Fortes neiges  Fortes précipitations  Vent > 20 kt
SIGMETs :   Divers  Orages  Givrage  Turbulence  Onde Orograph.  Cendres Volcan.






- Altitude de l'aérodrome : 302 ft
- Code IATA : CGN


EDDK - Cologne Bonn

DERNIER METAR :
  • 220050Z 17009KT 9999 FEW035 04/01 Q1025 NOSIG

METARs EXPIRÉS :
  • 212250Z 19010KT 9999 BKN035 06/01 Q1026 NOSIG
  • 212220Z 19010KT 9999 BKN042 07/01 Q1026 NOSIG

TAF TAF EDDK
Valide du 21 à 18h jusqu'au 23 à 00h UTC


211700Z 2118/2224 23013KT 9999 SCT035
BECMG 2118/2120 20008KT
BECMG 2209/2212 23013KT
TEMPO 2212/2224 24015G25KT
TEMPO 2217/2224 RA



MET'MAP, la Météo Aéronautique d'un coup d'oeil ! - Copyright ORBIFLY Décembre 2007 - Disclaimer

ORBIFLY MET'MAP TEAM :

Programmation & Développement : Alexandra Zaïnal
Sur une idée originale de : Baudouin d'Aumeries
Assistance à la programmation : Marc-Olivier Méhu
Soutien technique & logistique : Manuel Goepfert

Contact : metmap@orbifly.com




SOURCES & CREDITS :

   NOAA